メインページ
METAR-TAF:

METAR-TAF

空港 :

キャンベルタウン, スコットランド

緯度: 55-26-14N, 経度: 005-41-11W, 海抜: 13m

現時点の気象観測

当レポートは18時間19分前の04:50(UTC)に作成
南東の風 31kt
気温 4°C
湿度 93%
気圧 1007 hPa
視程: 3900m
高度1100ftの千切れ雲あり

METAR: EGEC 150450Z 13031KT 3900 RA BKN011 04/03 Q1007

時間: 23:09 (23:09 UTC)

予報

当レポートは14時間49分前の08:20(UTC)に作成
予報は15日の 09時(UTC)から 15日の 18時(UTC)まで有効
南東の風 25kt
視程10km以上
高度2500ftの雲は散在している
15日の 09時(UTC)から 15日の 18時(UTC)まで一時的に
南東の風 30kt、最大40ktの突風を伴う
視程: 7000m
高度1200ftの千切れ雲あり
確率 30% :
15日の 09時(UTC)から 15日の 18時(UTC)まで一時的に
視程: 4000m
高度900ftの千切れ雲あり
雨, 霧雨

TAF: EGEC 150820Z 1509/1518 13025KT 9999 SCT025 TEMPO 1509/1518 14030G40KT 7000 RA BKN012 PROB30 TEMPO 1509/1518 4000 RADZ BKN009

4,000以上の空港の気象観測と天気予報(METAR報とTAF報)

利用可能な観測所は地図上に黄色い丸と赤い丸で示す。

丸の上にカーソルを重ねると観測所名を参照できる。

次にクリックすると気象観測と天気予報を参照できる。

マップの切り替え:黒色「×」印の緑ボタンをクリックして拡大、「-」印の緑ボタンをクリックして縮小、緑色の三角印をクリックして隣りの地図に切り替え


METAR-TAF: